createdAt,value
2022-12-03T00:00:38.239Z,6.95
2022-12-03T00:03:04.900Z,6.50
2022-12-03T00:05:31.693Z,5.80
2022-12-03T00:07:58.206Z,5.20
2022-12-03T00:10:24.838Z,4.50
2022-12-03T00:12:51.395Z,4.57
2022-12-03T00:15:18.049Z,4.65
2022-12-03T00:17:44.565Z,3.90
2022-12-03T00:20:21.303Z,3.33
2022-12-03T00:22:47.836Z,3.28
2022-12-03T00:25:14.467Z,3.05
2022-12-03T00:27:41.039Z,3.00
2022-12-03T00:30:08.828Z,2.65
2022-12-03T00:32:35.445Z,2.35
2022-12-03T00:35:01.972Z,2.05
2022-12-03T00:37:28.557Z,2.17
2022-12-03T00:39:55.051Z,1.95
2022-12-03T00:42:21.627Z,2.03
2022-12-03T00:44:48.263Z,1.52
2022-12-03T00:47:14.861Z,1.80
2022-12-03T00:49:41.495Z,1.60
2022-12-03T00:52:08.071Z,1.60
2022-12-03T00:54:34.625Z,1.35
2022-12-03T00:57:01.220Z,1.50
2022-12-03T00:59:27.876Z,1.67
2022-12-03T01:01:54.475Z,1.20
2022-12-03T01:04:21.263Z,1.70
2022-12-03T01:06:47.850Z,1.40
2022-12-03T01:09:14.408Z,1.52
2022-12-03T01:11:41.510Z,1.42
2022-12-03T01:14:11.106Z,1.38
2022-12-03T01:16:38.260Z,1.35
2022-12-03T01:19:06.131Z,1.55
2022-12-03T01:21:32.839Z,1.58
2022-12-03T01:23:59.684Z,1.27
2022-12-03T01:26:26.423Z,1.50
2022-12-03T01:28:53.346Z,1.50
2022-12-03T01:31:38.758Z,1.60
2022-12-03T01:34:06.016Z,1.33
2022-12-03T01:36:34.368Z,1.60
2022-12-03T01:39:01.818Z,1.52
2022-12-03T01:41:29.018Z,1.58
2022-12-03T01:43:56.556Z,1.50
2022-12-03T01:46:29.514Z,1.73
2022-12-03T01:48:56.359Z,1.50
2022-12-03T01:51:23.013Z,1.30
2022-12-03T01:53:49.878Z,1.70
2022-12-03T01:56:17.655Z,1.52
2022-12-03T01:58:44.999Z,1.65
2022-12-03T02:01:16.475Z,1.30
2022-12-03T02:03:44.194Z,1.60
2022-12-03T02:06:19.001Z,1.50
2022-12-03T02:08:46.495Z,1.30
2022-12-03T02:11:12.994Z,1.20
2022-12-03T02:13:39.853Z,1.10
2022-12-03T02:16:06.754Z,1.33
2022-12-03T02:18:33.387Z,1.35
2022-12-03T02:21:20.145Z,1.33
2022-12-03T02:23:50.687Z,1.40
2022-12-03T02:26:17.309Z,1.38
2022-12-03T02:28:44.047Z,1.40
2022-12-03T02:31:10.775Z,1.38
2022-12-03T02:33:37.483Z,1.30
2022-12-03T02:36:04.502Z,1.13
2022-12-03T02:38:32.602Z,1.13
2022-12-03T02:41:02.924Z,1.10
2022-12-03T02:43:29.528Z,0.93
2022-12-03T02:45:58.381Z,0.95
2022-12-03T02:48:30.260Z,0.90
2022-12-03T02:51:02.730Z,1.00
2022-12-03T02:53:32.073Z,1.10
2022-12-03T02:55:59.677Z,0.95
2022-12-03T02:58:27.679Z,0.98
2022-12-03T03:00:55.050Z,0.80
2022-12-03T03:03:22.554Z,0.77
2022-12-03T03:05:49.493Z,1.00
2022-12-03T03:08:16.866Z,0.90
2022-12-03T03:10:44.218Z,0.90
2022-12-03T03:13:13.861Z,0.70
2022-12-03T03:15:41.245Z,0.70
2022-12-03T03:18:08.984Z,0.70
2022-12-03T03:20:35.696Z,0.70
2022-12-03T03:23:11.089Z,0.63
2022-12-03T03:25:43.436Z,0.65
2022-12-03T03:28:10.436Z,0.60
2022-12-03T03:30:39.087Z,0.60
2022-12-03T03:33:05.764Z,0.60
2022-12-03T03:35:32.628Z,0.60
2022-12-03T03:37:59.570Z,0.50
2022-12-03T03:40:26.456Z,0.47
2022-12-03T03:42:53.141Z,0.50
2022-12-03T03:45:24.000Z,0.60
2022-12-03T03:47:54.062Z,0.50
2022-12-03T03:50:20.723Z,0.40
2022-12-03T03:52:47.268Z,0.50
2022-12-03T03:55:13.787Z,0.50
2022-12-03T03:57:40.352Z,0.50
2022-12-03T04:00:08.177Z,0.40
2022-12-03T04:02:34.949Z,0.40
2022-12-03T04:05:01.526Z,0.30
2022-12-03T04:07:28.721Z,0.40
2022-12-03T04:09:55.269Z,0.30
2022-12-03T04:12:40.182Z,0.40
2022-12-03T04:15:08.070Z,0.32
2022-12-03T04:17:34.583Z,0.40
2022-12-03T04:20:01.144Z,0.38
2022-12-03T04:22:42.688Z,0.40
2022-12-03T04:25:28.882Z,0.38
2022-12-03T04:28:14.179Z,0.32
2022-12-03T04:30:40.830Z,0.30
2022-12-03T04:33:25.856Z,0.40
2022-12-03T04:35:52.992Z,0.30
2022-12-03T04:38:19.645Z,0.30
2022-12-03T04:41:15.179Z,0.22
2022-12-03T04:44:01.688Z,0.30
2022-12-03T04:46:28.517Z,0.30
2022-12-03T04:48:55.148Z,0.20
2022-12-03T04:51:21.726Z,0.20
2022-12-03T04:53:48.242Z,0.13
2022-12-03T04:56:14.760Z,0.20
2022-12-03T04:58:41.275Z,0.20
2022-12-03T05:01:07.872Z,0.20
2022-12-03T05:03:34.512Z,0.10
2022-12-03T05:06:00.979Z,0.20
2022-12-03T05:08:27.479Z,0.10
2022-12-03T05:10:54.052Z,0.20
2022-12-03T05:13:20.586Z,0.20
2022-12-03T05:15:47.120Z,0.13
2022-12-03T05:18:13.628Z,0.20
2022-12-03T05:20:46.966Z,0.40
2022-12-03T05:23:18.007Z,0.15
2022-12-03T05:25:44.548Z,0.20
2022-12-03T05:28:11.075Z,0.28
2022-12-03T05:30:37.783Z,0.30
2022-12-03T05:33:04.349Z,0.30
2022-12-03T05:35:31.707Z,0.30
2022-12-03T05:37:58.407Z,0.30
2022-12-03T05:40:25.031Z,0.20
2022-12-03T05:42:54.543Z,0.20
2022-12-03T05:45:23.464Z,0.20
2022-12-03T05:47:50.035Z,0.40
2022-12-03T05:50:16.807Z,0.35
2022-12-03T05:52:43.412Z,0.20
2022-12-03T05:55:11.122Z,0.20
2022-12-03T05:57:38.402Z,0.20
2022-12-03T06:00:07.890Z,0.30
2022-12-03T06:02:34.603Z,0.20
2022-12-03T06:05:01.172Z,0.20
2022-12-03T06:07:27.741Z,0.30
2022-12-03T06:09:54.324Z,0.20
2022-12-03T06:12:20.903Z,0.20
2022-12-03T06:14:47.488Z,0.20
2022-12-03T06:17:13.977Z,0.30
2022-12-03T06:19:40.606Z,0.20
2022-12-03T06:22:07.295Z,0.20
2022-12-03T06:24:33.779Z,0.10
2022-12-03T06:27:00.361Z,0.13
2022-12-03T06:29:26.988Z,0.30
2022-12-03T06:31:53.549Z,0.17
2022-12-03T06:34:20.087Z,0.30
2022-12-03T06:36:46.994Z,0.20
2022-12-03T06:39:13.626Z,0.30
2022-12-03T06:41:40.227Z,0.50
2022-12-03T06:44:06.789Z,0.30
2022-12-03T06:46:33.359Z,0.20
2022-12-03T06:49:00.006Z,0.30
2022-12-03T06:51:26.729Z,0.30
2022-12-03T06:53:53.392Z,0.20
2022-12-03T06:56:22.325Z,0.30
2022-12-03T06:58:49.312Z,0.40
2022-12-03T07:01:15.957Z,0.30
2022-12-03T07:03:42.552Z,0.30
2022-12-03T07:06:09.234Z,0.30
2022-12-03T07:08:35.693Z,0.30
2022-12-03T07:11:02.221Z,0.20
2022-12-03T07:13:28.791Z,0.30
2022-12-03T07:15:57.716Z,0.30
2022-12-03T07:18:24.504Z,0.20
2022-12-03T07:20:51.012Z,0.30
2022-12-03T07:23:17.504Z,0.40
2022-12-03T07:25:44.020Z,0.47
2022-12-03T07:28:10.519Z,0.30
2022-12-03T07:30:37.110Z,0.32
2022-12-03T07:33:03.665Z,0.40
2022-12-03T07:35:30.264Z,0.20
2022-12-03T07:37:56.798Z,0.30
2022-12-03T07:40:23.341Z,0.30
2022-12-03T07:42:49.813Z,0.45
2022-12-03T07:45:16.380Z,0.30
2022-12-03T07:47:42.931Z,0.20
2022-12-03T07:50:10.111Z,0.20
2022-12-03T07:52:36.590Z,0.50
2022-12-03T07:55:03.162Z,0.22
2022-12-03T07:57:29.750Z,0.30
2022-12-03T07:59:56.282Z,0.50
2022-12-03T08:02:22.952Z,0.40
2022-12-03T08:04:49.535Z,0.30
2022-12-03T08:07:16.779Z,0.50
2022-12-03T08:09:43.546Z,0.50
2022-12-03T08:12:16.702Z,0.60
2022-12-03T08:14:43.912Z,0.50
2022-12-03T08:17:12.547Z,0.47
2022-12-03T08:19:39.132Z,0.40
2022-12-03T08:22:13.571Z,0.40
2022-12-03T08:24:40.234Z,0.40
2022-12-03T08:27:17.414Z,0.40
2022-12-03T08:29:44.254Z,0.40
2022-12-03T08:32:11.910Z,0.30
2022-12-03T08:34:43.151Z,0.40
2022-12-03T08:37:18.204Z,0.40
2022-12-03T08:39:49.572Z,0.30
2022-12-03T08:42:41.371Z,0.40
2022-12-03T08:45:23.301Z,0.38
2022-12-03T08:47:49.767Z,0.40
2022-12-03T08:50:30.080Z,0.50
2022-12-03T08:53:17.678Z,0.50
2022-12-03T08:55:51.670Z,0.50
2022-12-03T08:58:44.434Z,0.50
2022-12-03T09:01:11.028Z,0.60
2022-12-03T09:03:39.641Z,0.60
2022-12-03T09:06:06.601Z,0.60
2022-12-03T09:08:33.129Z,0.43
2022-12-03T09:10:59.691Z,0.47
2022-12-03T09:13:26.178Z,0.43
2022-12-03T09:15:52.648Z,0.50
2022-12-03T09:18:19.269Z,0.40
2022-12-03T09:20:45.856Z,0.40
2022-12-03T09:23:12.411Z,0.55
2022-12-03T09:25:38.971Z,0.40
2022-12-03T09:28:05.503Z,0.40
2022-12-03T09:30:31.993Z,0.38
2022-12-03T09:33:00.017Z,0.40
2022-12-03T09:35:27.457Z,0.30
2022-12-03T09:37:54.169Z,0.30
2022-12-03T09:40:21.159Z,0.30
2022-12-03T09:42:47.867Z,0.30
2022-12-03T09:45:15.630Z,0.22
2022-12-03T09:47:47.950Z,0.40
2022-12-03T09:50:17.238Z,0.40
2022-12-03T09:52:45.193Z,0.40
2022-12-03T09:55:15.248Z,0.77
2022-12-03T09:57:41.679Z,0.55
2022-12-03T10:00:19.909Z,0.50
2022-12-03T10:02:47.756Z,0.70
2022-12-03T10:05:14.905Z,0.60
2022-12-03T10:07:42.291Z,0.45
2022-12-03T10:10:18.709Z,0.60
2022-12-03T10:12:45.671Z,0.50
2022-12-03T10:15:17.499Z,0.73
2022-12-03T10:17:44.402Z,0.70
2022-12-03T10:20:13.594Z,0.70
2022-12-03T10:22:40.430Z,0.80
2022-12-03T10:25:12.823Z,0.63
2022-12-03T10:27:40.265Z,0.60
2022-12-03T10:30:19.698Z,0.70
2022-12-03T10:32:48.988Z,0.70
2022-12-03T10:35:20.819Z,0.75
2022-12-03T10:38:02.052Z,0.90
2022-12-03T10:40:33.635Z,0.97
2022-12-03T10:43:18.520Z,0.60
2022-12-03T10:46:10.866Z,0.88
2022-12-03T10:51:07.123Z,0.80
2022-12-03T10:53:36.560Z,1.00
2022-12-03T10:56:05.357Z,0.73
2022-12-03T10:58:37.382Z,0.73
2022-12-03T11:01:22.200Z,0.88
2022-12-03T11:03:49.136Z,0.90
2022-12-03T11:06:17.680Z,1.00
2022-12-03T11:08:49.196Z,0.90
2022-12-03T11:11:24.739Z,0.85
2022-12-03T11:14:02.013Z,0.80
2022-12-03T11:16:40.810Z,0.73
2022-12-03T11:19:13.067Z,0.70
2022-12-03T11:22:07.046Z,0.80
2022-12-03T11:24:35.469Z,1.00
2022-12-03T11:27:01.942Z,0.65
2022-12-03T11:30:00.537Z,0.82
2022-12-03T11:32:39.679Z,0.90
2022-12-03T11:35:12.742Z,0.80
2022-12-03T11:37:39.330Z,0.90
2022-12-03T11:40:18.184Z,0.82
2022-12-03T11:42:46.519Z,0.70
2022-12-03T11:45:17.692Z,0.70
2022-12-03T11:47:46.042Z,0.80
2022-12-03T11:50:40.213Z,0.80
2022-12-03T11:53:20.195Z,1.05
2022-12-03T11:55:52.063Z,0.93
2022-12-03T11:58:39.243Z,1.02
2022-12-03T12:01:07.378Z,1.13
2022-12-03T12:03:44.345Z,1.05
2022-12-03T12:06:15.998Z,0.90
2022-12-03T12:08:56.623Z,0.93
2022-12-03T12:11:43.748Z,0.85
2022-12-03T12:14:13.703Z,0.80
2022-12-03T12:16:51.467Z,0.90
2022-12-03T12:19:43.586Z,0.90
2022-12-03T12:22:16.290Z,0.50
2022-12-03T12:24:51.358Z,0.70
2022-12-03T12:27:30.627Z,0.70
2022-12-03T12:30:04.841Z,0.55
2022-12-03T12:32:33.625Z,0.70
2022-12-03T12:35:15.185Z,0.90
2022-12-03T12:37:58.204Z,0.70
2022-12-03T12:40:29.110Z,0.60
2022-12-03T12:43:10.052Z,0.60
2022-12-03T12:45:42.065Z,0.50
2022-12-03T12:48:29.180Z,0.70
2022-12-03T12:51:08.859Z,0.73
2022-12-03T12:53:37.018Z,0.90
2022-12-03T12:56:27.931Z,0.65
2022-12-03T12:58:54.701Z,0.85
2022-12-03T13:01:26.034Z,0.68
2022-12-03T13:03:53.030Z,0.70
2022-12-03T13:06:26.666Z,0.70
2022-12-03T13:08:53.983Z,0.70
2022-12-03T13:11:41.416Z,0.65
2022-12-03T13:14:18.581Z,0.50
2022-12-03T13:16:47.326Z,0.63
2022-12-03T13:19:27.893Z,0.60
2022-12-03T13:22:00.293Z,0.70
2022-12-03T13:24:29.686Z,0.80
2022-12-03T13:26:57.154Z,0.70
2022-12-03T13:29:24.061Z,0.57
2022-12-03T13:31:53.284Z,0.60
2022-12-03T13:34:22.850Z,0.45
2022-12-03T13:36:57.193Z,0.70
2022-12-03T13:39:35.444Z,0.70
2022-12-03T13:42:26.696Z,0.60
2022-12-03T13:44:53.490Z,0.68
2022-12-03T13:47:21.725Z,0.55
2022-12-03T13:49:57.034Z,0.50
2022-12-03T13:52:26.882Z,0.40
2022-12-03T13:54:55.335Z,0.50
2022-12-03T13:57:21.976Z,0.50
2022-12-03T13:59:48.813Z,0.50
2022-12-03T14:02:15.475Z,0.60
2022-12-03T14:04:42.097Z,0.50
2022-12-03T14:07:08.575Z,0.60
2022-12-03T14:09:35.103Z,0.50
2022-12-03T14:12:20.186Z,0.50
2022-12-03T14:14:46.730Z,0.40
2022-12-03T14:17:13.365Z,0.57
2022-12-03T14:19:40.087Z,0.50
2022-12-03T14:22:08.792Z,0.40
2022-12-03T14:24:36.085Z,0.52
2022-12-03T14:27:02.559Z,0.40
2022-12-03T14:29:29.321Z,0.50
2022-12-03T14:31:55.998Z,0.40
2022-12-03T14:34:22.655Z,0.55
2022-12-03T14:36:49.268Z,0.50
2022-12-03T14:39:15.880Z,0.50
2022-12-03T14:42:00.870Z,0.40
2022-12-03T14:44:27.434Z,0.40
2022-12-03T14:46:57.087Z,0.68
2022-12-03T14:49:24.120Z,0.40
2022-12-03T14:51:50.689Z,0.50
2022-12-03T14:54:17.250Z,0.50
2022-12-03T14:56:43.818Z,0.40
2022-12-03T14:59:10.575Z,0.60
2022-12-03T15:01:37.175Z,0.50
2022-12-03T15:04:03.817Z,0.50
2022-12-03T15:06:30.410Z,0.50
2022-12-03T15:08:56.930Z,0.63
2022-12-03T15:11:23.434Z,0.40
2022-12-03T15:13:50.108Z,0.68
2022-12-03T15:16:16.794Z,0.50
2022-12-03T15:18:43.607Z,0.60
2022-12-03T15:21:10.231Z,0.50
2022-12-03T15:23:36.908Z,0.50
2022-12-03T15:26:03.687Z,0.60
2022-12-03T15:28:30.281Z,0.50
2022-12-03T15:30:56.924Z,0.60
2022-12-03T15:33:23.589Z,0.43
2022-12-03T15:35:50.162Z,0.60
2022-12-03T15:38:16.751Z,0.50
2022-12-03T15:40:43.515Z,0.50
2022-12-03T15:43:10.205Z,0.60
2022-12-03T15:45:36.976Z,0.60
2022-12-03T15:48:04.290Z,0.50
2022-12-03T15:50:33.537Z,0.55
2022-12-03T15:53:02.261Z,0.60
2022-12-03T15:55:28.862Z,0.50
2022-12-03T15:57:55.473Z,0.50
2022-12-03T16:00:22.404Z,0.30
2022-12-03T16:02:52.659Z,0.50
2022-12-03T16:05:19.812Z,0.40
2022-12-03T16:07:46.448Z,0.68
2022-12-03T16:10:13.158Z,0.50
2022-12-03T16:12:39.681Z,0.65
2022-12-03T16:15:07.455Z,0.60
2022-12-03T16:17:34.027Z,0.65
2022-12-03T16:20:00.525Z,0.50
2022-12-03T16:22:27.059Z,0.68
2022-12-03T16:24:53.554Z,0.60
2022-12-03T16:27:25.318Z,1.25
2022-12-03T16:29:53.156Z,1.23
2022-12-03T16:32:19.854Z,1.35
2022-12-03T16:34:46.340Z,0.85
2022-12-03T16:37:12.964Z,0.93
2022-12-03T16:39:39.482Z,0.90
2022-12-03T16:42:10.188Z,0.93
2022-12-03T16:44:59.344Z,1.02
2022-12-03T16:47:30.605Z,1.23
2022-12-03T16:50:00.698Z,1.10
2022-12-03T16:52:27.375Z,1.00
2022-12-03T16:54:53.910Z,0.90
2022-12-03T16:57:20.566Z,0.98
2022-12-03T16:59:47.090Z,1.00
2022-12-03T17:02:13.837Z,1.10
2022-12-03T17:04:40.583Z,1.10
2022-12-03T17:07:07.074Z,1.05
2022-12-03T17:09:33.562Z,0.98
2022-12-03T17:12:00.138Z,1.20
2022-12-03T17:14:31.605Z,1.10
2022-12-03T17:16:59.893Z,1.38
2022-12-03T17:19:26.462Z,1.30
2022-12-03T17:21:54.097Z,1.02
2022-12-03T17:24:21.420Z,1.00
2022-12-03T17:26:47.975Z,1.10
2022-12-03T17:29:14.540Z,0.98
2022-12-03T17:31:42.542Z,1.00
2022-12-03T17:34:09.654Z,0.80
2022-12-03T17:36:36.261Z,0.70
2022-12-03T17:39:02.955Z,0.90
2022-12-03T17:41:29.511Z,0.90
2022-12-03T17:43:56.108Z,1.00
2022-12-03T17:46:22.822Z,1.00
2022-12-03T17:48:49.799Z,0.70
2022-12-03T17:51:16.428Z,0.90
2022-12-03T17:53:42.988Z,0.77
2022-12-03T17:56:09.662Z,0.70
2022-12-03T17:58:36.224Z,0.80
2022-12-03T18:01:03.490Z,0.68
2022-12-03T18:03:30.890Z,0.70
2022-12-03T18:05:57.469Z,0.73
2022-12-03T18:08:24.035Z,0.80
2022-12-03T18:10:50.620Z,0.65
2022-12-03T18:13:17.252Z,0.90
2022-12-03T18:15:43.925Z,0.77
2022-12-03T18:18:10.938Z,0.73
2022-12-03T18:20:37.524Z,0.70
2022-12-03T18:23:04.211Z,0.80
2022-12-03T18:25:31.003Z,0.90
2022-12-03T18:27:57.663Z,0.70
2022-12-03T18:30:24.295Z,0.90
2022-12-03T18:32:50.955Z,0.85
2022-12-03T18:35:18.286Z,0.80
2022-12-03T18:37:44.998Z,0.85
2022-12-03T18:40:20.067Z,1.00
2022-12-03T18:42:47.139Z,0.80
2022-12-03T18:45:15.048Z,0.80
2022-12-03T18:47:41.717Z,0.70
2022-12-03T18:50:09.574Z,0.70
2022-12-03T18:52:36.077Z,0.80
2022-12-03T18:55:02.853Z,0.60
2022-12-03T18:57:29.386Z,0.70
2022-12-03T18:59:56.278Z,0.70
2022-12-03T19:05:10.033Z,0.90
2022-12-03T19:07:36.925Z,0.75
2022-12-03T19:10:03.953Z,0.88
2022-12-03T19:12:31.198Z,0.70
2022-12-03T19:14:57.804Z,0.80
2022-12-03T19:17:24.409Z,0.80
2022-12-03T19:19:50.866Z,0.75
2022-12-03T19:22:17.381Z,0.88
2022-12-03T19:24:43.910Z,1.23
2022-12-03T19:27:10.414Z,1.00
2022-12-03T19:29:36.950Z,0.90
2022-12-03T19:32:03.729Z,0.90
2022-12-03T19:34:30.437Z,0.98
2022-12-03T19:36:57.013Z,0.90
2022-12-03T19:39:24.203Z,0.90
2022-12-03T19:41:50.701Z,0.70
2022-12-03T19:44:18.582Z,0.75
2022-12-03T19:46:45.455Z,0.60
2022-12-03T19:49:12.175Z,0.90
2022-12-03T19:51:38.831Z,0.70
2022-12-03T19:54:06.935Z,0.80
2022-12-03T19:56:34.040Z,0.70
2022-12-03T19:59:00.847Z,1.00
2022-12-03T20:01:30.181Z,0.77
2022-12-03T20:03:58.239Z,0.70
2022-12-03T20:06:27.510Z,0.68
2022-12-03T20:08:58.924Z,0.80
2022-12-03T20:11:28.293Z,0.70
2022-12-03T20:13:57.679Z,0.85
2022-12-03T20:16:25.838Z,0.80
2022-12-03T20:18:56.335Z,0.80
2022-12-03T20:21:22.851Z,0.70
2022-12-03T20:23:49.450Z,0.77
2022-12-03T20:26:18.780Z,0.70
2022-12-03T20:28:46.100Z,0.90
2022-12-03T20:31:15.458Z,0.60
2022-12-03T20:33:44.261Z,0.60
2022-12-03T20:36:11.792Z,0.63
2022-12-03T20:38:38.856Z,0.70
2022-12-03T20:41:09.471Z,0.50
2022-12-03T20:43:36.417Z,0.50
2022-12-03T20:46:09.332Z,0.50
2022-12-03T20:48:36.195Z,0.40
2022-12-03T20:51:04.959Z,0.60
2022-12-03T20:53:31.585Z,0.60
2022-12-03T20:55:59.161Z,0.60
2022-12-03T20:58:26.159Z,0.60
2022-12-03T21:00:52.792Z,0.52
2022-12-03T21:03:19.439Z,0.60
2022-12-03T21:05:46.101Z,0.73
2022-12-03T21:08:12.728Z,0.47
2022-12-03T21:10:46.342Z,0.40
2022-12-03T21:13:18.473Z,0.80
2022-12-03T21:15:45.721Z,0.70
2022-12-03T21:18:14.550Z,0.70
2022-12-03T21:20:46.355Z,0.70
2022-12-03T21:23:13.980Z,0.70
2022-12-03T21:25:40.855Z,0.70
2022-12-03T21:28:08.932Z,0.55
2022-12-03T21:30:39.927Z,0.52
2022-12-03T21:33:06.927Z,0.60
2022-12-03T21:35:36.756Z,0.60
2022-12-03T21:38:03.639Z,0.50
2022-12-03T21:40:30.320Z,0.50
2022-12-03T21:42:57.597Z,0.50
2022-12-03T21:45:25.081Z,0.50
2022-12-03T21:47:51.966Z,0.50
2022-12-03T21:50:18.742Z,0.55
2022-12-03T21:52:45.267Z,0.60
2022-12-03T21:55:11.925Z,0.70
2022-12-03T21:57:38.430Z,0.55
2022-12-03T22:00:08.931Z,0.68
2022-12-03T22:02:35.561Z,1.10
2022-12-03T22:05:02.100Z,0.82
2022-12-03T22:07:28.708Z,0.60
2022-12-03T22:09:55.556Z,0.50
2022-12-03T22:12:22.279Z,0.70
2022-12-03T22:14:48.850Z,0.55
2022-12-03T22:17:15.349Z,0.50
2022-12-03T22:19:42.444Z,0.52
2022-12-03T22:22:08.987Z,0.60
2022-12-03T22:24:35.561Z,0.70
2022-12-03T22:27:03.978Z,0.50
2022-12-03T22:29:30.819Z,0.60
2022-12-03T22:31:57.389Z,0.40
2022-12-03T22:34:24.105Z,0.60
2022-12-03T22:36:50.648Z,0.45
2022-12-03T22:39:17.225Z,0.50
2022-12-03T22:41:43.830Z,0.50
2022-12-03T22:44:10.549Z,0.50
2022-12-03T22:46:37.214Z,0.60
2022-12-03T22:49:07.478Z,0.60
2022-12-03T22:51:34.752Z,0.57
2022-12-03T22:54:01.889Z,0.50
2022-12-03T22:56:30.396Z,0.50
2022-12-03T22:58:57.331Z,0.50
2022-12-03T23:01:26.658Z,0.40
2022-12-03T23:03:53.375Z,0.40
2022-12-03T23:06:20.434Z,0.30
2022-12-03T23:08:47.367Z,0.40
2022-12-03T23:11:14.406Z,0.40
2022-12-03T23:13:41.022Z,0.47
2022-12-03T23:16:15.139Z,0.30
2022-12-03T23:18:42.082Z,0.30
2022-12-03T23:21:08.704Z,0.30
2022-12-03T23:23:35.219Z,0.57
2022-12-03T23:26:07.286Z,0.38
2022-12-03T23:31:01.427Z,0.45
2022-12-03T23:33:28.678Z,0.30
2022-12-03T23:35:55.480Z,0.30
2022-12-03T23:38:22.378Z,0.25
2022-12-03T23:40:48.962Z,0.20
2022-12-03T23:43:16.406Z,0.30
2022-12-03T23:45:43.101Z,0.30
2022-12-03T23:48:09.666Z,0.40
2022-12-03T23:50:39.641Z,0.30
2022-12-03T23:53:06.164Z,0.30
2022-12-03T23:55:32.935Z,0.25
2022-12-03T23:57:59.434Z,0.22
